Timeline UpdatesTrip UpdatesNews PostsPvt PostsTravel TipsAdmin PostsConv PostsFollowed PostsChat RequestsBlog PostsPNR Posts

Disclaimer
Search
 
 
Fri Apr 25, 2014 03:59:57 ISTHomeTrainsΣChainsAtlasPNRForumGalleryNewsFAQTripsMembersLoginFeedback
No Recent News for this Train
Other Trains in the News **new
Latest...
Will be diverted via Malkhedi-Agasod chord line avoiding Bina station from 25th march 2014
Thu Mar 27, 2014 (03:31PM)
⇐ Return Journey: Train# 18478

18477/Kalinga Utkal Express

Mar 27 (3:30PM)
Change Departure Station:
Change Arrival Station:
Post a Train Travel TipPost a Train Travel Tip **new
Post a Comment/Question/Picture/VideoPost a Comment/Question/Picture/Video
Pantry/Catering
✓ Pantry Car Avbl
✓ Catering Avbl
RSA - Rake Sharing
Rake/Coach Composition
Coach Composition:ENG-SLR-GS-GS-A1-B2-B1-S12-S11-S10-PC-S9-S8-S7-S6-S5-S4-S3-S2-S1-GS-SLR. By DJ 132 Entry# 701081
Loco
PURI-NZM: ET WAM-4 / TKD WAP-7 NZM-HW: LDH WDM-3A
News    PNR    Forum    Time-Table    Availability    Fare Chart    Map    Arr/Dep History    Trips    Gallery    ΣChains    X/O    Timeline    
Travel Time: 29h 5m    37 halts    Distance: 1387 km    Avg Speed: 47 km/hr
Type: Mail/Express
Zone: ECoR/East Coast
Departs @ 15:25 (Avg 18m late)
Platform# 2
SMTWTFS
Bilaspur Junction/BSP 
Arrives @ 20:30 +1 night (Avg 23m late)
Platform# 2
SMTWTFS
Haridwar Junction/HW 

37 halts. 184 intermediate Stations between Bilaspur Junction and Haridwar Junction

Show ALL intermediate Stations  Show Old Time-Table

#CodeStation NameX/OArrivesAvgDepartsAvgHaltPFDay#KmSpeedElevZoneAddress
1PURIPuri (5)  -20:55+851-984.24912mECoRPuri, Odisha
2SILSakhi Gopal (3)  21:15+1321:16+131m--1-967.84810mECoRPuri, Odisha
3KURKhurda Road Junction (7)X  21:50+1521:55+165m--1-940.34525mECoRKhordha, Odisha
4BBSBhubaneswar (4)  22:20+1622:25+175m41-921.46740mECoRBhubaneshwar, Odisha
5CTCCuttack (5)  22:50+2722:55+275m11-893.57728mECoRCuttack, Odisha
6JJKRJajpur Keonjhar Road (4)  23:51+2223:52+231m--1-821.54036mECoRJajpur, Odisha
7BHCBhadrak (4)X  00:58+601:00+82m--2-777.98323mECoRBhadrak, Odisha
8SOROSoroX  01:21+1601:22+171m--2-748.97214mSERSoro, Odisha
9BLSBalasore (4)X  01:50+1801:55+175m--2-715.47019mSERBalasore, Odisha
10BTSBasta (3)X  02:19+1902:20+201m--2-687.46916mSERBasta, Odisha
11JERJaleswar (4)X  02:37+1802:38+181m--2-667.98313mSERJaleswar, Odisha
12HIJHijli (2)  03:25+1503:26+181m--2-603.25048mSERdist - paschim medinipur, West Bengal
13CKUChakulia  04:47+704:48+91m--2-535.480126mSERChakulia, Jharkhand
14GTSGhatsila (3)X  05:11+705:12+81m--2-504.841103mSEREast Singhbhum, Jharkhand
15TATATatanagar Junction (5)  06:05+406:10+75m32-468.760164mSER91-657-2423026, Jharkhand
16SINISini JunctionX  06:37+1206:38+131m--2-441.757182mSERNational Highway 33, Jharkhand
17RKSNRajkharsawan Junction  06:54+1306:55+141m--2-426.548189mSERWest Singhbhum district, Jharkhand
18CKPChakradharpur (3)X  07:20+707:30+710m--2-406.484235mSERChakradharpur (West Singhbhum), Jharkhand
19GOLGoilkera  07:54+1207:55+121m--2-372.655333mSERGoilkera, Jharkhand
20MOUManoharpur  08:25+1208:26+131m--2-345.164228mSERManoharpur, Jharkhand
21BZRBisra08:50+1508:51+161m--2-319.4114224mSERSundargarh, Odisha
22BNDMBondamunda (3)  08:55+1508:56+151m--2-311.921213mSERRourkela, Odisha
23ROURourkela Junction (5)X  09:15+1409:30+1515m12-305.466198mSERRourkela, Odisha
24GPRaj Gangpur (3)  09:57+1909:58+201m12-275.674237mSERRaj Ganpur, Odisha
25BMBBamra (3)  10:26+1910:27+201m--2-240.935259mSERBamra PH : 06642-229268, Odisha
26JSGJharsuguda Junction (5)X  11:30+311:40+310m--2-204.478236mSERJharsuguda, Odisha
27BRJNBrajrajnagarX  11:49+1011:50+121m--2-192.759212mSECRBrajrajnagar, Odisha
28BPHBelpaharX  11:59+1312:00+151m--2-183.885235mSECRBelpahar, Odisha
29RIGRaigarh (3)X  12:36+1712:41+175m22-132.889220mSECRRaigarh, Chhattisgarh
30KHSKharsia  13:04+2713:05+281m--2-98.871259mSECRNational Highway 200, Chhattisgarh
31SKTSakti (4)  13:18+2913:19+301m--2-83.474237mSECRJanjgir-Champa, Chhattisgarh
32BUABaradwar  13:31+3213:32+331m--2-68.555256mSECRJanjgir-Champa, Chhattisgarh
33CPHChampa Junction (3)  13:49+3513:54+345m22-53.065264mSECRNational Highway 200 (07819-245767), Chhattisgarh
34NIANaila  14:04+3514:05+361m--2-42.269273mSECRJanjgir, Chhattisgarh
35AKTAkaltara (4)X  14:18+3514:19+361m--2-27.232284mSECRDist. Janjgir Champa, Chhattisgarh
36BSP»Bilaspur Junction (8)»  15:10+1115:25+1815m220.060271mSECRBilaspur, Chhattisgarh
37KGBKargi Road  15:57+2115:58+221m--232.047327mSECRBilaspur, Chhattisgarh
38BIGBelgahna  16:18+2116:19+231m--247.849327mSECRBilaspur, Chhattisgarh
39PNDPendra Road  17:25+2617:30+285m92101.561620mSECRBilaspur district, Chhattisgarh
40APRAnuppur Junction (3)X  18:20+2918:25+295m--2152.776487mSECRAnuppur, Madhya Pradesh
41AALAmlaiX  18:35+3318:36+341m--2165.452495mSECRAnuppur, Madhya Pradesh
42BUHBurharX  18:46+3318:47+341m--2174.131494mSECRBurhar, Madhya Pradesh
43SDLShahdolX  19:25+2019:30+205m--2193.664466mSECR, Madhya Pradesh
44BRSBirsinghpur  20:05+2420:06+251m--2231.048461mSECRPali, Madhya Pradesh
45NRZBNowrozabadX  20:15+2420:16+251m--2238.247458mSECRNational Highway 78, Madhya Pradesh
46UMRUmaria (3)  20:45+1620:50+165m22260.860469mSECRUmaria, Madhya Pradesh
47CHDChandia Road (1)X  21:09+1521:10+171m12279.823406mSECRNational Highway 78, Madhya Pradesh
48KMZKatni Murwara  22:55+423:10+1015m--2319.670385mWCRMP 483504 ?, Madhya Pradesh
49DMODamoh (2)  00:43+800:45+102m--3428.878365mWCRDamoh, Madhya Pradesh
50PHAPatharia  01:05+1401:07+142m--3454.961382mWCRState Highway 14, Madhya Pradesh
51SGOSaugor (2)X  01:57+1702:00+183m--3505.855519mWCRMP 470001Madhya pradesh, Madhya Pradesh
52KYEKhurai (5)XO  02:58+1103:00+132m--3558.616439mWCRKhurai, Madhya Pradesh
53MAKRMalkheri Junction (2)  04:05+104:07+22m--3575.961421mWCRGuna, Madhya Pradesh
54LARLalitpur (3)X  05:09+905:10+201m33639.0114373mNCRLalitpur, Uttar Pradesh
55TBTTalbahat (4)  05:31+2405:33+262m--3678.971314mNCRKhaniyadhana Station Rd, Madhya Pradesh
56BABBabina (3)XO  05:54+2805:55+301m13703.938285mNCRBabina, Uttar Pradesh
57JHSJhansi Junction (7)  06:35+2406:43+318m43729.465259mNCRJhansi, Uttar Pradesh
58DAADatia (2)  07:06+3307:07+391m--3754.483264mNCRDatia, Madhya Pradesh
59DBADabra (3)X  07:29+4107:30+481m13784.839204mNCRDabra(District-Gwalior), Madhya Pradesh
60GWLGwalior Junction (4)X  08:35+3408:40+355m23827.183214mNCRGwalior, Madhya Pradesh
61MRAMorena (3)  09:08+4209:09+431m23865.667176mNCRMorena, Madhya Pradesh
62DHODholpur Junction (3)X  09:33+4109:34+431m13892.544177mNCRDholpur, Rajasthan
63AGCAgra Cantt. (6)X  10:45+3310:53+348m33945.124174mNCRAgra, Uttar Pradesh
64RKMRaja Ki Mandi (4)  11:03+3511:04+361m13949.169170mNCRAgra, Uttar Pradesh
65MTJMathura Junction (10)X  11:47+4111:52+415m23998.869179mNCRMathura, Uttar Pradesh
66FDBFaridabad (4)X  13:30+3413:31+361m231111.937206mNRFaridabad, Haryana
67NZMDelhi Hazrat Nizamuddin (7)XO14:05+3914:35+3930m131132.739209mNRNizamuddin East/Sarai KaleKhan Bus Terminal, Delhi NCT
68GZBGhaziabad Junction (6)  15:11+4915:13+492m131156.167217mNRGhaziabad, Uttar Pradesh
69MTCMeerut City Junction (6)  15:55+5816:00+565m131203.464229mNRMeerut, Uttar Pradesh
70MOZMuzaffarnagar (3)  16:52+1:0116:53+1:031m131258.918247mNRMuzaffarNagar, Uttar Pradesh
71DBDDeoband (2)X  18:11+2518:12+261m131283.034258mNRSaharanpur, Uttar Pradesh
72TPZTapri Junction (2)  19:01+1519:02+151m231310.655274mNRTapri -Saharanpur, Uttar Pradesh
73RKRoorkee (3)X  19:37+2119:38+231m331342.752264mNRRoorkee - 247667, Uttarakhand
74HW•Haridwar Junction (9)•  20:30+23-231387.4-294mNRHaridwar, Uttarakhand
Scroll to Top
Scroll to Bottom